createdAt,value
2022-09-26T00:01:54.667Z,14.10
2022-09-26T00:04:43.128Z,14.18
2022-09-26T00:07:32.800Z,14.21
2022-09-26T00:10:21.200Z,14.24
2022-09-26T00:13:09.554Z,14.23
2022-09-26T00:15:58.537Z,14.16
2022-09-26T00:18:50.397Z,14.18
2022-09-26T00:21:39.329Z,14.26
2022-09-26T00:24:29.033Z,14.26
2022-09-26T00:27:17.416Z,14.15
2022-09-26T00:30:06.897Z,14.21
2022-09-26T00:32:55.255Z,14.27
2022-09-26T00:35:51.372Z,14.26
2022-09-26T00:38:40.657Z,14.17
2022-09-26T00:41:30.451Z,14.17
2022-09-26T00:44:46.360Z,14.12
2022-09-26T00:47:43.861Z,13.97
2022-09-26T00:50:37.539Z,13.99
2022-09-26T00:53:34.639Z,14.02
2022-09-26T00:56:27.700Z,14.05
2022-09-26T00:59:24.264Z,14.06
2022-09-26T01:02:12.922Z,14.07
2022-09-26T01:05:02.758Z,14.07
2022-09-26T01:07:53.646Z,14.05
2022-09-26T01:10:43.212Z,13.98
2022-09-26T01:13:34.302Z,13.94
2022-09-26T01:16:24.107Z,13.82
2022-09-26T01:19:23.864Z,13.75
2022-09-26T01:22:47.871Z,13.70
2022-09-26T01:25:57.514Z,13.70
2022-09-26T01:29:06.125Z,13.73
2022-09-26T01:32:22.790Z,13.78
2022-09-26T01:35:15.504Z,13.80
2022-09-26T01:38:17.686Z,13.81
2022-09-26T01:41:18.726Z,13.56
2022-09-26T01:44:16.938Z,13.35
2022-09-26T01:47:14.678Z,13.05
2022-09-26T01:50:14.153Z,13.02
2022-09-26T01:53:07.366Z,13.18
2022-09-26T01:56:02.239Z,13.50
2022-09-26T01:58:54.869Z,13.48
2022-09-26T02:01:46.292Z,13.41
2022-09-26T02:04:39.853Z,13.54
2022-09-26T02:07:35.336Z,13.61
2022-09-26T02:10:29.641Z,13.70
2022-09-26T02:13:23.147Z,13.71
2022-09-26T02:16:19.506Z,13.59
2022-09-26T02:19:13.809Z,13.58
2022-09-26T02:22:04.201Z,13.59
2022-09-26T02:24:53.857Z,13.57
2022-09-26T02:27:42.904Z,13.64
2022-09-26T02:30:31.733Z,13.61
2022-09-26T02:33:21.254Z,13.66
2022-09-26T02:36:11.812Z,13.70
2022-09-26T02:39:01.838Z,13.73
2022-09-26T02:42:10.261Z,13.68
2022-09-26T02:45:17.394Z,13.43
2022-09-26T02:48:29.015Z,13.59
2022-09-26T02:51:34.226Z,13.64
2022-09-26T02:54:32.431Z,13.71
2022-09-26T02:57:33.942Z,13.72
2022-09-26T03:00:25.769Z,13.74
2022-09-26T03:03:22.604Z,13.63
2022-09-26T03:06:18.018Z,13.59
2022-09-26T03:09:09.258Z,13.59
2022-09-26T03:12:03.362Z,13.55
2022-09-26T03:14:57.882Z,13.57
2022-09-26T03:17:53.065Z,13.58
2022-09-26T03:20:42.674Z,13.61
2022-09-26T03:23:31.518Z,13.69
2022-09-26T03:26:25.886Z,13.63
2022-09-26T03:29:20.026Z,13.78
2022-09-26T03:32:08.445Z,13.81
2022-09-26T03:34:58.303Z,13.81
2022-09-26T03:37:47.956Z,13.83
2022-09-26T03:40:37.950Z,13.76
2022-09-26T03:43:49.760Z,13.79
2022-09-26T03:46:40.354Z,13.82
2022-09-26T03:49:30.321Z,13.87
2022-09-26T03:52:18.853Z,13.87
2022-09-26T03:55:07.603Z,13.77
2022-09-26T03:57:57.515Z,13.66
2022-09-26T04:00:52.252Z,13.70
2022-09-26T04:03:49.998Z,13.71
2022-09-26T04:06:39.375Z,13.71
2022-09-26T04:09:28.213Z,13.61
2022-09-26T04:12:16.929Z,13.45
2022-09-26T04:15:07.706Z,13.33
2022-09-26T04:17:56.920Z,13.47
2022-09-26T04:20:47.585Z,13.57
2022-09-26T04:23:44.162Z,13.64
2022-09-26T04:26:32.948Z,13.73
2022-09-26T04:29:21.385Z,13.79
2022-09-26T04:32:19.653Z,13.84
2022-09-26T04:35:27.963Z,13.90
2022-09-26T04:38:18.746Z,13.96
2022-09-26T04:41:09.846Z,14.01
2022-09-26T04:43:59.655Z,14.04
2022-09-26T04:46:48.172Z,14.04
2022-09-26T04:49:37.300Z,14.10
2022-09-26T04:52:26.673Z,14.08
2022-09-26T04:55:16.643Z,14.13
2022-09-26T04:58:05.006Z,14.16
2022-09-26T05:00:53.371Z,14.16
2022-09-26T05:03:58.586Z,14.24
2022-09-26T05:06:49.978Z,14.23
2022-09-26T05:09:49.247Z,14.28
2022-09-26T05:12:41.164Z,14.26
2022-09-26T05:15:29.534Z,14.23
2022-09-26T05:18:17.900Z,14.25
2022-09-26T05:21:07.733Z,14.22
2022-09-26T05:24:13.623Z,14.23
2022-09-26T05:27:02.661Z,14.21
2022-09-26T05:29:57.091Z,14.22
2022-09-26T05:32:48.590Z,14.16
2022-09-26T05:35:38.421Z,14.08
2022-09-26T05:38:26.825Z,14.12
2022-09-26T05:41:14.588Z,14.29
2022-09-26T05:44:03.202Z,14.30
2022-09-26T05:46:53.882Z,14.33
2022-09-26T05:49:42.427Z,14.35
2022-09-26T05:52:34.638Z,14.36
2022-09-26T05:55:23.034Z,14.34
2022-09-26T05:58:32.262Z,14.37
2022-09-26T06:01:34.922Z,14.51
2022-09-26T06:04:34.647Z,14.58
2022-09-26T06:07:49.100Z,14.63
2022-09-26T06:11:01.403Z,14.43
2022-09-26T06:13:50.842Z,14.66
2022-09-26T06:16:39.384Z,14.75
2022-09-26T06:19:28.606Z,14.57
2022-09-26T06:22:18.282Z,14.65
2022-09-26T06:25:07.658Z,14.75
2022-09-26T06:27:59.925Z,14.83
2022-09-26T06:30:49.210Z,14.95
2022-09-26T06:33:51.412Z,15.03
2022-09-26T06:36:48.172Z,15.07
2022-09-26T06:39:37.958Z,15.19
2022-09-26T06:42:27.859Z,15.19
2022-09-26T06:45:34.866Z,15.22
2022-09-26T06:48:42.455Z,15.35
2022-09-26T06:51:42.660Z,15.53
2022-09-26T06:54:31.902Z,15.50
2022-09-26T06:57:21.933Z,15.59
2022-09-26T07:00:13.447Z,15.51
2022-09-26T07:03:26.784Z,15.57
2022-09-26T07:06:27.177Z,15.72
2022-09-26T07:09:17.230Z,15.79
2022-09-26T07:12:15.973Z,15.77
2022-09-26T07:15:07.512Z,15.90
2022-09-26T07:17:58.134Z,15.95
2022-09-26T07:21:07.559Z,15.72
2022-09-26T07:24:14.640Z,15.66
2022-09-26T07:27:04.204Z,15.90
2022-09-26T07:29:52.862Z,16.01
2022-09-26T07:32:47.916Z,16.01
2022-09-26T07:36:05.942Z,16.12
2022-09-26T07:38:54.399Z,16.26
2022-09-26T07:41:45.976Z,16.52
2022-09-26T07:48:02.466Z,16.66
2022-09-26T07:51:12.033Z,16.72
2022-09-26T07:54:09.609Z,16.81
2022-09-26T07:56:58.002Z,16.82
2022-09-26T07:59:59.560Z,16.70
2022-09-26T08:03:10.799Z,16.72
2022-09-26T08:06:01.639Z,16.87
2022-09-26T08:08:54.232Z,16.97
2022-09-26T08:12:02.415Z,16.93
2022-09-26T08:15:18.092Z,16.94
2022-09-26T08:18:07.254Z,17.00
2022-09-26T08:20:57.099Z,17.08
2022-09-26T08:23:46.911Z,17.05
2022-09-26T08:27:10.730Z,17.12
2022-09-26T08:30:04.520Z,17.07
2022-09-26T08:33:06.834Z,17.00
2022-09-26T08:36:05.143Z,16.99
2022-09-26T08:39:12.359Z,16.93
2022-09-26T08:42:34.519Z,16.90
2022-09-26T08:46:01.969Z,16.94
2022-09-26T08:49:17.409Z,16.84
2022-09-26T08:52:13.896Z,16.81
2022-09-26T08:55:07.202Z,16.95
2022-09-26T08:58:00.079Z,16.97
2022-09-26T09:00:52.722Z,16.89
2022-09-26T09:03:51.160Z,16.97
2022-09-26T09:06:39.609Z,16.89
2022-09-26T09:09:29.492Z,16.85
2022-09-26T09:12:49.279Z,16.87
2022-09-26T09:16:08.687Z,16.79
2022-09-26T09:19:42.370Z,16.77
2022-09-26T09:23:07.834Z,16.77
2022-09-26T09:29:49.397Z,16.95
2022-09-26T09:32:59.662Z,16.90
2022-09-26T09:36:22.151Z,16.99
2022-09-26T09:39:35.340Z,17.11
2022-09-26T09:42:44.559Z,17.17
2022-09-26T09:45:39.362Z,17.13
2022-09-26T09:48:29.038Z,16.89
2022-09-26T09:51:27.868Z,17.01
2022-09-26T09:54:40.153Z,17.05
2022-09-26T09:57:43.975Z,16.94
2022-09-26T10:00:37.093Z,16.89
2022-09-26T10:03:41.079Z,17.03
2022-09-26T10:06:45.417Z,17.06
2022-09-26T10:09:41.313Z,16.95
2022-09-26T10:12:51.438Z,17.13
2022-09-26T10:16:02.528Z,17.17
2022-09-26T10:19:13.321Z,17.14
2022-09-26T10:22:02.153Z,17.26
2022-09-26T10:24:51.644Z,17.38
2022-09-26T10:27:52.199Z,17.50
2022-09-26T10:30:50.097Z,17.55
2022-09-26T10:33:46.161Z,17.54
2022-09-26T10:36:38.184Z,17.62
2022-09-26T10:39:47.916Z,17.75
2022-09-26T10:42:38.291Z,17.81
2022-09-26T10:45:36.483Z,17.74
2022-09-26T10:49:03.232Z,17.56
2022-09-26T10:52:04.663Z,17.83
2022-09-26T10:54:59.793Z,17.96
2022-09-26T10:57:52.020Z,18.00
2022-09-26T11:00:45.565Z,18.07
2022-09-26T11:03:42.592Z,18.21
2022-09-26T11:06:51.412Z,18.32
2022-09-26T11:09:52.446Z,17.98
2022-09-26T11:13:18.907Z,18.22
2022-09-26T11:16:15.652Z,18.05
2022-09-26T11:19:16.001Z,18.37
2022-09-26T11:22:14.370Z,18.53
2022-09-26T11:25:08.916Z,18.52
2022-09-26T11:28:07.195Z,18.46
2022-09-26T11:31:28.509Z,18.87
2022-09-26T11:34:43.277Z,18.99
2022-09-26T11:37:43.368Z,19.08
2022-09-26T11:40:44.000Z,19.34
2022-09-26T11:43:45.593Z,19.54
2022-09-26T11:46:56.632Z,19.51
2022-09-26T11:50:26.840Z,19.68
2022-09-26T11:53:55.870Z,19.48
2022-09-26T11:56:55.219Z,19.74
2022-09-26T12:00:06.354Z,19.89
2022-09-26T12:03:36.338Z,20.35
2022-09-26T12:06:33.689Z,20.65
2022-09-26T12:09:42.286Z,20.74
2022-09-26T12:12:41.974Z,20.07
2022-09-26T12:15:37.876Z,20.53
2022-09-26T12:18:36.207Z,20.38
2022-09-26T12:22:02.966Z,20.97
2022-09-26T12:25:17.857Z,21.22
2022-09-26T12:28:25.254Z,21.35
2022-09-26T12:31:21.284Z,21.07
2022-09-26T12:34:29.544Z,21.51
2022-09-26T12:37:46.055Z,21.64
2022-09-26T12:40:39.640Z,21.65
2022-09-26T12:43:56.704Z,21.54
2022-09-26T12:47:03.487Z,21.91
2022-09-26T12:50:11.621Z,21.86
2022-09-26T12:53:20.722Z,21.47
2022-09-26T12:56:11.282Z,21.83
2022-09-26T12:59:16.668Z,21.40
2022-09-26T13:02:33.715Z,21.39
2022-09-26T13:05:50.443Z,21.47
2022-09-26T13:08:53.299Z,21.16
2022-09-26T13:11:53.408Z,21.67
2022-09-26T13:15:01.419Z,21.93
2022-09-26T13:17:55.217Z,21.94
2022-09-26T13:20:51.110Z,22.05
2022-09-26T13:23:44.802Z,22.19
2022-09-26T13:26:38.787Z,21.79
2022-09-26T13:29:33.829Z,21.76
2022-09-26T13:32:27.840Z,21.89
2022-09-26T13:35:20.951Z,21.71
2022-09-26T13:38:25.381Z,21.96
2022-09-26T13:41:29.647Z,22.08
2022-09-26T13:44:32.286Z,21.71
2022-09-26T13:47:33.762Z,21.68
2022-09-26T13:50:27.186Z,21.40
2022-09-26T13:53:27.135Z,21.62
2022-09-26T13:56:44.249Z,21.53
2022-09-26T13:59:36.045Z,21.29
2022-09-26T14:02:28.527Z,21.52
2022-09-26T14:05:45.772Z,21.79
2022-09-26T14:08:55.577Z,21.72
2022-09-26T14:11:49.865Z,21.00
2022-09-26T14:14:46.439Z,22.12
2022-09-26T14:18:17.182Z,22.59
2022-09-26T14:21:29.172Z,22.54
2022-09-26T14:24:41.605Z,22.65
2022-09-26T14:27:44.354Z,22.99
2022-09-26T14:30:33.474Z,22.98
2022-09-26T14:33:25.306Z,23.39
2022-09-26T14:36:28.740Z,23.22
2022-09-26T14:39:33.436Z,23.33
2022-09-26T14:42:27.964Z,22.67
2022-09-26T14:45:23.197Z,22.58
2022-09-26T14:48:18.706Z,22.62
2022-09-26T14:51:27.348Z,22.74
2022-09-26T14:54:23.700Z,22.87
2022-09-26T14:57:21.999Z,22.89
2022-09-26T15:00:37.154Z,22.85
2022-09-26T15:03:25.569Z,22.86
2022-09-26T15:06:15.177Z,22.75
2022-09-26T15:09:11.368Z,22.37
2022-09-26T15:12:02.324Z,22.17
2022-09-26T15:14:55.482Z,21.56
2022-09-26T15:17:50.570Z,21.49
2022-09-26T15:20:45.869Z,21.94
2022-09-26T15:23:35.908Z,22.05
2022-09-26T15:26:27.533Z,21.91
2022-09-26T15:29:17.415Z,21.15
2022-09-26T15:32:06.945Z,21.38
2022-09-26T15:34:58.111Z,21.48
2022-09-26T15:37:46.718Z,21.38
2022-09-26T15:40:35.172Z,21.37
2022-09-26T15:43:22.690Z,21.40
2022-09-26T15:46:23.673Z,21.20
2022-09-26T15:49:15.183Z,21.05
2022-09-26T15:52:06.305Z,21.05
2022-09-26T15:54:55.186Z,20.72
2022-09-26T15:57:44.360Z,20.54
2022-09-26T16:00:36.665Z,20.38
2022-09-26T16:03:45.491Z,20.40
2022-09-26T16:06:35.500Z,20.42
2022-09-26T16:09:32.501Z,20.20
2022-09-26T16:12:23.735Z,19.82
2022-09-26T16:15:17.868Z,19.72
2022-09-26T16:18:07.077Z,19.78
2022-09-26T16:21:16.187Z,19.71
2022-09-26T16:24:28.088Z,19.65
2022-09-26T16:27:24.571Z,19.53
2022-09-26T16:30:37.721Z,19.43
2022-09-26T16:33:32.231Z,19.36
2022-09-26T16:36:23.582Z,19.27
2022-09-26T16:39:21.154Z,19.15
2022-09-26T16:42:17.887Z,19.10
2022-09-26T16:45:15.126Z,18.90
2022-09-26T16:48:04.505Z,18.86
2022-09-26T16:51:13.656Z,18.75
2022-09-26T16:54:20.824Z,18.66
2022-09-26T16:57:17.761Z,18.50
2022-09-26T17:00:33.786Z,18.44
2022-09-26T17:03:25.211Z,18.29
2022-09-26T17:06:13.485Z,18.21
2022-09-26T17:09:08.912Z,18.17
2022-09-26T17:12:00.179Z,18.11
2022-09-26T17:14:52.143Z,17.98
2022-09-26T17:17:41.928Z,17.98
2022-09-26T17:20:30.719Z,17.99
2022-09-26T17:23:39.520Z,17.95
2022-09-26T17:26:28.190Z,17.93
2022-09-26T17:29:21.172Z,17.88
2022-09-26T17:32:13.650Z,17.89
2022-09-26T17:35:05.709Z,17.81
2022-09-26T17:37:54.748Z,17.81
2022-09-26T17:40:45.874Z,17.79
2022-09-26T17:43:35.239Z,17.77
2022-09-26T17:46:23.868Z,17.74
2022-09-26T17:49:16.884Z,17.72
2022-09-26T17:52:24.056Z,17.67
2022-09-26T17:55:13.047Z,17.51
2022-09-26T17:58:02.635Z,17.52
2022-09-26T18:00:52.865Z,17.51
2022-09-26T18:03:41.203Z,17.47
2022-09-26T18:06:33.201Z,17.45
2022-09-26T18:09:23.439Z,17.45
2022-09-26T18:12:17.648Z,17.44
2022-09-26T18:15:06.652Z,17.39
2022-09-26T18:17:55.238Z,17.37
2022-09-26T18:20:45.617Z,17.22
2022-09-26T18:23:42.534Z,17.23
2022-09-26T18:26:34.620Z,17.18
2022-09-26T18:29:30.021Z,17.14
2022-09-26T18:32:26.642Z,17.07
2022-09-26T18:35:17.095Z,17.03
2022-09-26T18:38:05.558Z,16.99
2022-09-26T18:40:55.996Z,16.97
2022-09-26T18:43:46.872Z,16.94
2022-09-26T18:46:36.585Z,16.92
2022-09-26T18:49:26.824Z,16.88
2022-09-26T18:52:17.594Z,16.84
2022-09-26T18:55:31.832Z,16.68
2022-09-26T18:58:26.703Z,16.58
2022-09-26T19:01:22.704Z,16.51
2022-09-26T19:04:14.937Z,16.45
2022-09-26T19:07:08.612Z,16.39
2022-09-26T19:09:57.345Z,16.39
2022-09-26T19:12:45.806Z,16.22
2022-09-26T19:15:34.462Z,16.11
2022-09-26T19:18:24.359Z,16.05
2022-09-26T19:21:19.273Z,16.03
2022-09-26T19:24:21.265Z,15.96
2022-09-26T19:27:15.219Z,16.04
2022-09-26T19:30:06.439Z,15.89
2022-09-26T19:32:57.632Z,15.84
2022-09-26T19:35:47.604Z,15.82
2022-09-26T19:38:36.062Z,15.80
2022-09-26T19:41:24.447Z,15.75
2022-09-26T19:44:13.406Z,15.70
2022-09-26T19:47:03.214Z,15.85
2022-09-26T19:49:53.566Z,15.85
2022-09-26T19:52:43.589Z,15.89
2022-09-26T19:55:32.729Z,15.89
2022-09-26T19:58:23.593Z,15.88
2022-09-26T20:01:16.810Z,15.73
2022-09-26T20:04:05.308Z,15.82
2022-09-26T20:06:53.768Z,15.76
2022-09-26T20:09:43.942Z,15.75
2022-09-26T20:12:32.361Z,15.56
2022-09-26T20:15:21.275Z,15.53
2022-09-26T20:18:14.233Z,15.51
2022-09-26T20:21:02.646Z,15.51
2022-09-26T20:23:51.034Z,15.46
2022-09-26T20:26:42.719Z,15.42
2022-09-26T20:29:51.114Z,15.39
2022-09-26T20:32:40.807Z,15.29
2022-09-26T20:35:35.127Z,15.10
2022-09-26T20:38:30.651Z,15.08
2022-09-26T20:41:24.350Z,15.07
2022-09-26T20:44:18.037Z,14.94
2022-09-26T20:47:06.662Z,14.95
2022-09-26T20:49:59.156Z,14.93
2022-09-26T20:52:47.651Z,14.86
2022-09-26T20:55:36.763Z,14.87
2022-09-26T20:58:26.352Z,14.92
2022-09-26T21:01:17.529Z,14.93
2022-09-26T21:04:06.409Z,14.93
2022-09-26T21:06:54.737Z,14.91
2022-09-26T21:09:43.128Z,14.73
2022-09-26T21:12:31.425Z,14.84
2022-09-26T21:15:20.125Z,14.82
2022-09-26T21:18:22.608Z,14.87
2022-09-26T21:21:22.293Z,14.82
2022-09-26T21:24:32.330Z,13.94
2022-09-26T21:27:21.143Z,13.82
2022-09-26T21:30:14.657Z,13.65
2022-09-26T21:33:03.023Z,13.53
2022-09-26T21:35:53.110Z,13.57
2022-09-26T21:38:41.423Z,14.26
2022-09-26T21:41:29.978Z,14.61
2022-09-26T21:44:23.399Z,14.51
2022-09-26T21:47:11.775Z,14.68
2022-09-26T21:50:00.322Z,14.71
2022-09-26T21:52:52.420Z,14.46
2022-09-26T21:55:46.651Z,14.59
2022-09-26T21:58:39.120Z,14.73
2022-09-26T22:01:27.513Z,14.55
2022-09-26T22:04:15.881Z,13.63
2022-09-26T22:07:04.275Z,13.32
2022-09-26T22:09:53.985Z,13.12
2022-09-26T22:12:42.355Z,12.64
2022-09-26T22:15:30.979Z,12.60
2022-09-26T22:18:19.310Z,12.77
2022-09-26T22:21:08.214Z,12.77
2022-09-26T22:23:56.509Z,13.00
2022-09-26T22:26:46.385Z,13.78
2022-09-26T22:29:34.824Z,14.08
2022-09-26T22:32:23.373Z,14.29
2022-09-26T22:35:11.805Z,14.23
2022-09-26T22:38:00.077Z,14.15
2022-09-26T22:40:57.157Z,14.24
2022-09-26T22:43:49.237Z,14.34
2022-09-26T22:46:38.446Z,14.40
2022-09-26T22:49:26.971Z,14.32
2022-09-26T22:52:15.294Z,14.18
2022-09-26T22:55:03.698Z,14.12
2022-09-26T22:57:52.154Z,14.12
2022-09-26T23:00:41.909Z,14.12
2022-09-26T23:03:30.183Z,14.13
2022-09-26T23:06:18.736Z,14.04
2022-09-26T23:09:07.227Z,14.00
2022-09-26T23:11:55.586Z,13.99
2022-09-26T23:14:43.933Z,13.92
2022-09-26T23:17:33.634Z,13.90
2022-09-26T23:20:22.145Z,13.88
2022-09-26T23:23:11.494Z,13.87
2022-09-26T23:25:59.955Z,13.82
2022-09-26T23:28:48.301Z,13.74
2022-09-26T23:31:36.748Z,13.74
2022-09-26T23:34:26.610Z,13.65
2022-09-26T23:37:14.991Z,13.72
2022-09-26T23:40:03.820Z,13.70
2022-09-26T23:42:52.179Z,13.55
2022-09-26T23:45:42.005Z,13.44
2022-09-26T23:48:30.519Z,13.44
2022-09-26T23:51:20.270Z,13.36
2022-09-26T23:54:08.810Z,13.00
2022-09-26T23:56:57.162Z,12.89
2022-09-26T23:59:45.542Z,12.92
